Time;durP1;ratioP1;P1;durP2;ratioP2;P2;SDS_P1;SDS_P2;PMS_P1;PMS_P2;Temp;Humidity;BMP_temperature;BMP_pressure;BME280_temperature;BME280_humidity;BME280_pressure;Samples;Min_cycle;Max_cycle;Signal;HPM_P1;HPM_P2
2022/05/25 00:00:09;;;;;;;;;;;;;;;;;;348776;28;991;-70
2022/05/25 00:00:20;;;;;;;;;;;;;;;;;;348753;28;925;-70
2022/05/25 00:00:30;;;;;;;;;;;;;;;;;;348803;28;1008;-70
2022/05/25 00:00:40;;;;;;;;;;;;;;;;;;348722;28;909;-71
2022/05/25 00:00:55;;;;;;;;;;;;;;;;;;348827;28;801;-70
2022/05/25 00:01:05;;;;;;;;;;;;;;;;;;348778;28;865;-70
2022/05/25 00:01:15;;;;;;;;;;;;;;;;;;348762;28;1015;-70
2022/05/25 00:01:25;;;;;;;;;;;;;;;;;;349761;28;1358;-70
2022/05/25 00:01:36;;;;;;;;;;;;;;;;;;350095;28;874;-70
2022/05/25 00:01:47;;;;;;;;;;;;;;;;;;349927;28;994;-70
2022/05/25 00:01:57;;;;;;;;;;;;;;;;;;350161;28;1017;-70
2022/05/25 00:02:08;;;;;;;;;;;;;;;;;;350163;28;1025;-70
2022/05/25 00:02:18;;;;;;;;;;;;;;;;;;350100;28;829;-70
2022/05/25 00:02:28;;;;;;;;;;;;;;;;;;349929;28;1257;-70
2022/05/25 00:02:39;;;;;;;;;;;;;;;;;;350166;28;1008;-70
2022/05/25 00:02:49;;;;;;;;;;;;;;;;;;350065;28;884;-71
2022/05/25 00:02:59;;;;;;;;;;;;;;;;;;350183;28;794;-70
2022/05/25 00:03:10;;;;;;;;;;;;;;;;;;350151;28;913;-70
2022/05/25 00:03:20;;;;;;;;;;;;;;;;;;350087;28;944;-70
2022/05/25 00:03:32;;;;;;;;;;;;;;;;;;350117;28;854;-70
2022/05/25 00:03:42;;;;;;;;;;;;;;;;;;350160;28;944;-71
2022/05/25 00:03:52;;;;;;;;;;;;;;;;;;350124;28;873;-71
2022/05/25 00:04:04;;;;;;;;;;;;;;;;;;350169;28;846;-70
2022/05/25 00:04:14;;;;;;;;;;;;;;;;;;350162;28;951;-70
2022/05/25 00:04:24;;;;;;;;;;;;;;;;;;350121;28;865;-70
2022/05/25 00:04:35;;;;;;;;;;;;;;;;;;350148;28;988;-70
2022/05/25 00:04:45;;;;;;;;;;;;;;;;;;350055;28;904;-70
2022/05/25 00:04:55;;;;;;;;;;;;;;;;;;350093;28;928;-70
2022/05/25 00:05:07;;;;;;;;;;;;;;;;;;349901;28;1294;-70
2022/05/25 00:05:18;;;;;;;;;;;;;;;;;;350147;28;1009;-70
2022/05/25 00:05:30;;;;;;;;;;;;;;;;;;349911;28;1141;-70
2022/05/25 00:05:41;;;;;;;;;;;;;;;;;;350204;28;964;-70
2022/05/25 00:05:54;;;;;;;;;;;;;;;;;;350165;28;849;-70
2022/05/25 00:06:06;;;;;;;;;;;;;;;;;;350148;28;865;-70
2022/05/25 00:06:16;;;;;;;;;;;;;;;;;;350165;28;932;-70
2022/05/25 00:06:30;;;;;;;;;;;;;;;;;;350130;28;905;-70
2022/05/25 00:06:40;;;;;;;;;;;;;;;;;;350150;28;870;-70
2022/05/25 00:06:50;;;;;;;;;;;;;;;;;;350148;28;1110;-70
2022/05/25 00:07:03;;;;;;;;;;;;;;;;;;350080;28;937;-70
2022/05/25 00:07:14;;;;;;;;;;;;;;;;;;350104;28;913;-70
2022/05/25 00:07:24;;;;;;;;;;;;;;;;;;348633;28;1536;-69
2022/05/25 00:07:34;;;;;;;;;;;;;;;;;;349001;28;1775;-70
2022/05/25 00:07:45;;;;;;;;;;;;;;;;;;349749;28;1008;-70
2022/05/25 00:07:55;;;;;;;;;;;;;;;;;;350161;28;810;-70
2022/05/25 00:08:09;;;;;;;;;;;;;;;;;;349957;28;1053;-70
2022/05/25 00:08:19;;;;;;;;;;;;;;;;;;350147;28;943;-70
2022/05/25 00:08:30;;;;;;;;;;;;;;;;;;350135;28;924;-70
2022/05/25 00:08:40;;;;;;;;;;;;;;;;;;350173;28;924;-71
2022/05/25 00:08:50;;;;;;;;;;;;;;;;;;350114;28;852;-70
2022/05/25 00:09:01;;;;;;;;;;;;;;;;;;350091;28;925;-70
2022/05/25 00:09:11;;;;;;;;;;;;;;;;;;350141;28;971;-70
2022/05/25 00:09:24;;;;;;;;;;;;;;;;;;348804;28;1374;-70
2022/05/25 00:09:34;;;;;;;;;;;;;;;;;;350047;28;919;-71
2022/05/25 00:09:44;;;;;;;;;;;;;;;;;;350112;28;1012;-71
2022/05/25 00:09:55;;;;;;;;;;;;;;;;;;350136;28;920;-70
2022/05/25 00:10:05;;;;;;;;;;;;;;;;;;350142;28;991;-70
2022/05/25 00:10:15;;;;;;;;;;;;;;;;;;350098;28;891;-71
2022/05/25 00:10:25;;;;;;;;;;;;;;;;;;350139;28;897;-70
2022/05/25 00:10:36;;;;;;;;;;;;;;;;;;350016;28;1196;-70
2022/05/25 00:10:46;;;;;;;;;;;;;;;;;;349976;28;1163;-70
2022/05/25 00:10:56;;;;;;;;;;;;;;;;;;350068;28;944;-70
2022/05/25 00:11:07;;;;;;;;;;;;;;;;;;350135;28;904;-70
2022/05/25 00:11:17;;;;;;;;;;;;;;;;;;350150;28;940;-70
2022/05/25 00:11:27;;;;;;;;;;;;;;;;;;350151;28;920;-71
2022/05/25 00:11:38;;;;;;;;;;;;;;;;;;349868;28;1129;-71
2022/05/25 00:11:51;;;;;;;;;;;;;;;;;;350100;28;1070;-70
2022/05/25 00:12:05;;;;;;;;;;;;;;;;;;350145;28;837;-70
2022/05/25 00:12:17;;;;;;;;;;;;;;;;;;350071;28;1074;-71
2022/05/25 00:12:27;;;;;;;;;;;;;;;;;;349375;28;978;-70
2022/05/25 00:12:38;;;;;;;;;;;;;;;;;;350097;28;893;-70
2022/05/25 00:12:48;;;;;;;;;;;;;;;;;;350185;28;960;-70
2022/05/25 00:12:58;;;;;;;;;;;;;;;;;;350130;28;849;-70
2022/05/25 00:13:09;;;;;;;;;;;;;;;;;;350043;28;971;-70
2022/05/25 00:13:19;;;;;;;;;;;;;;;;;;350114;28;980;-70
2022/05/25 00:13:30;;;;;;;;;;;;;;;;;;350182;28;909;-70
2022/05/25 00:13:43;;;;;;;;;;;;;;;;;;350101;28;932;-71
2022/05/25 00:13:53;;;;;;;;;;;;;;;;;;350151;28;925;-70
2022/05/25 00:14:03;;;;;;;;;;;;;;;;;;350168;28;987;-70
2022/05/25 00:14:13;;;;;;;;;;;;;;;;;;350091;28;1008;-70
2022/05/25 00:14:24;;;;;;;;;;;;;;;;;;350164;28;908;-70
2022/05/25 00:14:34;;;;;;;;;;;;;;;;;;350155;28;952;-70
2022/05/25 00:14:44;;;;;;;;;;;;;;;;;;350073;28;934;-70
2022/05/25 00:14:54;;;;;;;;;;;;;;;;;;350147;28;967;-70
2022/05/25 00:15:05;;;;;;;;;;;;;;;;;;350166;28;756;-70
2022/05/25 00:15:16;;;;;;;;;;;;;;;;;;350125;28;936;-70
2022/05/25 00:15:26;;;;;;;;;;;;;;;;;;350145;28;983;-70
2022/05/25 00:15:36;;;;;;;;;;;;;;;;;;350095;28;872;-70
2022/05/25 00:15:46;;;;;;;;;;;;;;;;;;350131;28;905;-70
2022/05/25 00:15:57;;;;;;;;;;;;;;;;;;350146;28;837;-70
2022/05/25 00:16:07;;;;;;;;;;;;;;;;;;350177;28;971;-70
2022/05/25 00:16:17;;;;;;;;;;;;;;;;;;350160;28;902;-70
2022/05/25 00:16:27;;;;;;;;;;;;;;;;;;350128;28;912;-70
2022/05/25 00:16:38;;;;;;;;;;;;;;;;;;350103;28;1039;-70
2022/05/25 00:16:48;;;;;;;;;;;;;;;;;;350110;28;963;-70
2022/05/25 00:16:59;;;;;;;;;;;;;;;;;;350152;28;781;-70
2022/05/25 00:17:09;;;;;;;;;;;;;;;;;;350093;28;1016;-71
2022/05/25 00:17:20;;;;;;;;;;;;;;;;;;350050;28;916;-70
2022/05/25 00:17:30;;;;;;;;;;;;;;;;;;350116;28;928;-70
2022/05/25 00:17:41;;;;;;;;;;;;;;;;;;350175;28;862;-70
2022/05/25 00:17:51;;;;;;;;;;;;;;;;;;350163;28;928;-70
2022/05/25 00:18:02;;;;;;;;;;;;;;;;;;350153;28;924;-70
2022/05/25 00:18:12;;;;;;;;;;;;;;;;;;350120;28;896;-70
2022/05/25 00:18:22;;;;;;;;;;;;;;;;;;350138;28;920;-70
2022/05/25 00:18:33;;;;;;;;;;;;;;;;;;350199;28;853;-70
2022/05/25 00:20:10;;;;;;;;;;;;;;;;;;350010;28;992;-70
2022/05/25 00:20:20;;;;;;;;;;;;;;;;;;350139;28;806;-70
2022/05/25 00:20:31;;;;;;;;;;;;;;;;;;348466;28;1481;-69
2022/05/25 00:20:41;;;;;;;;;;;;;;;;;;350177;28;810;-70
2022/05/25 00:20:52;;;;;;;;;;;;;;;;;;350122;28;999;-71
2022/05/25 00:21:02;;;;;;;;;;;;;;;;;;350084;28;980;-70
2022/05/25 00:21:12;;;;;;;;;;;;;;;;;;350143;28;917;-70
2022/05/25 00:21:22;;;;;;;;;;;;;;;;;;350126;28;972;-70
2022/05/25 00:21:33;;;;;;;;;;;;;;;;;;350143;28;932;-70
2022/05/25 00:21:43;;;;;;;;;;;;;;;;;;349960;28;1164;-71
2022/05/25 00:21:56;;;;;;;;;;;;;;;;;;349884;28;1198;-70
2022/05/25 00:22:06;;;;;;;;;;;;;;;;;;350178;28;932;-70
2022/05/25 00:22:16;;;;;;;;;;;;;;;;;;350150;28;865;-70
2022/05/25 00:22:27;;;;;;;;;;;;;;;;;;350155;28;960;-70
2022/05/25 00:22:43;;;;;;;;;;;;;;;;;;350147;28;924;-70
2022/05/25 00:22:54;;;;;;;;;;;;;;;;;;350058;28;995;-70
2022/05/25 00:23:04;;;;;;;;;;;;;;;;;;350151;28;992;-70
2022/05/25 00:23:15;;;;;;;;;;;;;;;;;;350150;28;806;-70
2022/05/25 00:23:25;;;;;;;;;;;;;;;;;;350096;28;921;-70
2022/05/25 00:23:35;;;;;;;;;;;;;;;;;;350068;28;814;-70
2022/05/25 00:23:45;;;;;;;;;;;;;;;;;;350098;28;841;-70
2022/05/25 00:23:56;;;;;;;;;;;;;;;;;;350086;28;967;-70
2022/05/25 00:24:06;;;;;;;;;;;;;;;;;;350111;28;1152;-70
2022/05/25 00:24:16;;;;;;;;;;;;;;;;;;350160;28;857;-70
2022/05/25 00:24:27;;;;;;;;;;;;;;;;;;350132;28;1032;-70
2022/05/25 00:24:37;;;;;;;;;;;;;;;;;;349991;28;1240;-70
2022/05/25 00:24:47;;;;;;;;;;;;;;;;;;350087;28;762;-70
2022/05/25 00:24:58;;;;;;;;;;;;;;;;;;350126;28;850;-70
2022/05/25 00:25:09;;;;;;;;;;;;;;;;;;350078;28;782;-70
2022/05/25 00:25:25;;;;;;;;;;;;;;;;;;350056;28;995;-70
2022/05/25 00:25:36;;;;;;;;;;;;;;;;;;349991;28;1233;-69
2022/05/25 00:25:46;;;;;;;;;;;;;;;;;;350127;28;1015;-71
2022/05/25 00:25:57;;;;;;;;;;;;;;;;;;350095;28;925;-70
2022/05/25 00:26:07;;;;;;;;;;;;;;;;;;350024;28;925;-70
2022/05/25 00:26:17;;;;;;;;;;;;;;;;;;350117;28;858;-70
2022/05/25 00:26:27;;;;;;;;;;;;;;;;;;350143;28;786;-70
2022/05/25 00:26:37;;;;;;;;;;;;;;;;;;350095;28;968;-70
2022/05/25 00:26:48;;;;;;;;;;;;;;;;;;350126;28;924;-70
2022/05/25 00:26:58;;;;;;;;;;;;;;;;;;350087;28;905;-70
2022/05/25 00:27:08;;;;;;;;;;;;;;;;;;350064;28;909;-70
2022/05/25 00:27:18;;;;;;;;;;;;;;;;;;350119;28;1003;-70
2022/05/25 00:27:28;;;;;;;;;;;;;;;;;;350137;28;887;-70
2022/05/25 00:27:39;;;;;;;;;;;;;;;;;;350076;28;975;-70
2022/05/25 00:27:49;;;;;;;;;;;;;;;;;;350097;28;866;-70
2022/05/25 00:28:01;;;;;;;;;;;;;;;;;;350129;28;896;-70
2022/05/25 00:28:12;;;;;;;;;;;;;;;;;;350066;28;948;-70
2022/05/25 00:28:25;;;;;;;;;;;;;;;;;;350105;28;995;-70
2022/05/25 00:28:35;;;;;;;;;;;;;;;;;;350079;28;987;-70
2022/05/25 00:28:45;;;;;;;;;;;;;;;;;;350098;28;967;-70
2022/05/25 00:28:56;;;;;;;;;;;;;;;;;;350112;28;929;-70
2022/05/25 00:29:06;;;;;;;;;;;;;;;;;;350082;28;1015;-70
2022/05/25 00:29:16;;;;;;;;;;;;;;;;;;350087;28;964;-70
2022/05/25 00:29:26;;;;;;;;;;;;;;;;;;350071;28;1348;-70
2022/05/25 00:29:36;;;;;;;;;;;;;;;;;;350143;28;853;-70
2022/05/25 00:29:46;;;;;;;;;;;;;;;;;;350050;28;972;-70
2022/05/25 00:29:57;;;;;;;;;;;;;;;;;;350090;28;959;-70
2022/05/25 00:30:07;;;;;;;;;;;;;;;;;;350122;28;790;-70
2022/05/25 00:30:18;;;;;;;;;;;;;;;;;;350045;28;1134;-70
2022/05/25 00:30:28;;;;;;;;;;;;;;;;;;350071;28;1109;-70
2022/05/25 00:30:40;;;;;;;;;;;;;;;;;;350134;28;904;-69
2022/05/25 00:30:50;;;;;;;;;;;;;;;;;;350039;28;964;-70
2022/05/25 00:31:00;;;;;;;;;;;;;;;;;;350113;28;961;-70
2022/05/25 00:31:11;;;;;;;;;;;;;;;;;;350108;28;904;-70
2022/05/25 00:31:22;;;;;;;;;;;;;;;;;;350028;28;919;-70
2022/05/25 00:31:32;;;;;;;;;;;;;;;;;;350117;28;937;-70
2022/05/25 00:31:43;;;;;;;;;;;;;;;;;;350095;28;940;-70
2022/05/25 00:31:53;;;;;;;;;;;;;;;;;;349896;28;1139;-70
2022/05/25 00:32:04;;;;;;;;;;;;;;;;;;348775;28;1596;-70
2022/05/25 00:32:14;;;;;;;;;;;;;;;;;;349452;28;1719;-70
2022/05/25 00:32:24;;;;;;;;;;;;;;;;;;350125;28;917;-70
2022/05/25 00:32:35;;;;;;;;;;;;;;;;;;349925;28;1084;-70
2022/05/25 00:32:45;;;;;;;;;;;;;;;;;;349972;28;1160;-70
2022/05/25 00:32:56;;;;;;;;;;;;;;;;;;350092;28;1028;-70
2022/05/25 00:33:07;;;;;;;;;;;;;;;;;;350080;28;983;-70
2022/05/25 00:33:19;;;;;;;;;;;;;;;;;;350083;28;991;-70
2022/05/25 00:33:29;;;;;;;;;;;;;;;;;;350072;28;967;-70
2022/05/25 00:33:39;;;;;;;;;;;;;;;;;;349971;28;1027;-70
2022/05/25 00:33:49;;;;;;;;;;;;;;;;;;350138;28;905;-70
2022/05/25 00:34:00;;;;;;;;;;;;;;;;;;349113;28;1473;-70
2022/05/25 00:34:10;;;;;;;;;;;;;;;;;;350161;28;838;-70
2022/05/25 00:34:20;;;;;;;;;;;;;;;;;;350126;28;905;-70
2022/05/25 00:34:30;;;;;;;;;;;;;;;;;;350100;28;858;-70
2022/05/25 00:34:40;;;;;;;;;;;;;;;;;;350129;28;912;-70
2022/05/25 00:34:51;;;;;;;;;;;;;;;;;;349980;28;1249;-71
2022/05/25 00:35:01;;;;;;;;;;;;;;;;;;350070;28;899;-70
2022/05/25 00:35:13;;;;;;;;;;;;;;;;;;350088;28;897;-70
2022/05/25 00:35:24;;;;;;;;;;;;;;;;;;350111;28;921;-70
2022/05/25 00:35:35;;;;;;;;;;;;;;;;;;350060;28;960;-70
2022/05/25 00:35:45;;;;;;;;;;;;;;;;;;350117;28;1066;-70
2022/05/25 00:35:55;;;;;;;;;;;;;;;;;;349246;28;1411;-70
2022/05/25 00:36:06;;;;;;;;;;;;;;;;;;349986;28;988;-70
2022/05/25 00:36:16;;;;;;;;;;;;;;;;;;350100;28;837;-70
2022/05/25 00:36:27;;;;;;;;;;;;;;;;;;350047;28;1902;-70
2022/05/25 00:36:37;;;;;;;;;;;;;;;;;;350079;28;936;-70
2022/05/25 00:36:47;;;;;;;;;;;;;;;;;;350099;28;909;-70
2022/05/25 00:36:57;;;;;;;;;;;;;;;;;;350156;28;857;-70
2022/05/25 00:37:08;;;;;;;;;;;;;;;;;;350037;28;987;-70
2022/05/25 00:37:18;;;;;;;;;;;;;;;;;;350049;28;999;-70
2022/05/25 00:37:28;;;;;;;;;;;;;;;;;;348941;28;1568;-70
2022/05/25 00:37:39;;;;;;;;;;;;;;;;;;349837;28;1091;-70
2022/05/25 00:37:49;;;;;;;;;;;;;;;;;;350128;28;943;-70
2022/05/25 00:37:59;;;;;;;;;;;;;;;;;;350084;28;921;-70
2022/05/25 00:38:10;;;;;;;;;;;;;;;;;;349932;28;824;-70
2022/05/25 00:38:20;;;;;;;;;;;;;;;;;;350149;28;944;-70
2022/05/25 00:38:30;;;;;;;;;;;;;;;;;;350076;28;972;-70
2022/05/25 00:38:40;;;;;;;;;;;;;;;;;;350057;28;909;-70
2022/05/25 00:38:50;;;;;;;;;;;;;;;;;;350135;28;1015;-71
2022/05/25 00:39:01;;;;;;;;;;;;;;;;;;350137;28;861;-71
2022/05/25 00:39:11;;;;;;;;;;;;;;;;;;350054;28;985;-70
2022/05/25 00:39:23;;;;;;;;;;;;;;;;;;350038;28;917;-70
2022/05/25 00:39:34;;;;;;;;;;;;;;;;;;350130;28;913;-70
2022/05/25 00:39:44;;;;;;;;;;;;;;;;;;350077;28;1104;-70
2022/05/25 00:39:54;;;;;;;;;;;;;;;;;;350095;28;944;-70
2022/05/25 00:40:05;;;;;;;;;;;;;;;;;;350056;28;973;-70
2022/05/25 00:40:21;;;;;;;;;;;;;;;;;;350040;28;809;-70
2022/05/25 00:40:42;;;;;;;;;;;;;;;;;;350145;28;904;-70
2022/05/25 00:40:52;;;;;;;;;;;;;;;;;;350043;28;956;-70
2022/05/25 00:41:03;;;;;;;;;;;;;;;;;;350134;28;849;-70
2022/05/25 00:41:13;;;;;;;;;;;;;;;;;;350128;28;984;-70
2022/05/25 00:41:24;;;;;;;;;;;;;;;;;;350012;28;1305;-70
2022/05/25 00:41:34;;;;;;;;;;;;;;;;;;350134;28;976;-70
2022/05/25 00:41:44;;;;;;;;;;;;;;;;;;350000;28;882;-70
2022/05/25 00:41:55;;;;;;;;;;;;;;;;;;350066;28;972;-70
2022/05/25 00:42:06;;;;;;;;;;;;;;;;;;350117;28;924;-70
2022/05/25 00:42:16;;;;;;;;;;;;;;;;;;350116;28;904;-70
2022/05/25 00:42:26;;;;;;;;;;;;;;;;;;349995;28;995;-70
2022/05/25 00:42:37;;;;;;;;;;;;;;;;;;350043;28;1000;-70
2022/05/25 00:42:47;;;;;;;;;;;;;;;;;;350042;28;953;-70
2022/05/25 00:42:57;;;;;;;;;;;;;;;;;;350106;28;854;-69
2022/05/25 00:43:08;;;;;;;;;;;;;;;;;;348913;28;1307;-70
2022/05/25 00:43:18;;;;;;;;;;;;;;;;;;350025;28;1205;-70
2022/05/25 00:43:28;;;;;;;;;;;;;;;;;;350074;28;924;-70
2022/05/25 00:43:38;;;;;;;;;;;;;;;;;;350074;28;778;-70
2022/05/25 00:43:49;;;;;;;;;;;;;;;;;;350044;28;1067;-71
2022/05/25 00:43:59;;;;;;;;;;;;;;;;;;350104;28;972;-70
2022/05/25 00:44:09;;;;;;;;;;;;;;;;;;350137;28;790;-70
2022/05/25 00:44:20;;;;;;;;;;;;;;;;;;350019;28;980;-70
2022/05/25 00:44:30;;;;;;;;;;;;;;;;;;350089;28;806;-70
2022/05/25 00:44:40;;;;;;;;;;;;;;;;;;350092;28;995;-70
2022/05/25 00:44:51;;;;;;;;;;;;;;;;;;350112;28;976;-70
2022/05/25 00:45:02;;;;;;;;;;;;;;;;;;350076;28;794;-70
2022/05/25 00:45:13;;;;;;;;;;;;;;;;;;350141;28;857;-70
2022/05/25 00:45:23;;;;;;;;;;;;;;;;;;350103;28;936;-70
2022/05/25 00:45:35;;;;;;;;;;;;;;;;;;350073;28;953;-70
2022/05/25 00:45:50;;;;;;;;;;;;;;;;;;350058;28;1019;-70
2022/05/25 00:46:06;;;;;;;;;;;;;;;;;;350119;28;1007;-70
2022/05/25 00:46:17;;;;;;;;;;;;;;;;;;350146;28;837;-70
2022/05/25 00:46:29;;;;;;;;;;;;;;;;;;350028;28;845;-70
2022/05/25 00:46:39;;;;;;;;;;;;;;;;;;350121;28;888;-70
2022/05/25 00:46:50;;;;;;;;;;;;;;;;;;350077;28;924;-71
2022/05/25 00:47:00;;;;;;;;;;;;;;;;;;350128;28;940;-70
2022/05/25 00:47:12;;;;;;;;;;;;;;;;;;350082;28;1062;-70
2022/05/25 00:47:25;;;;;;;;;;;;;;;;;;350144;28;940;-70
2022/05/25 00:47:37;;;;;;;;;;;;;;;;;;350048;28;1062;-70
2022/05/25 00:47:49;;;;;;;;;;;;;;;;;;350092;28;932;-70
2022/05/25 00:48:00;;;;;;;;;;;;;;;;;;350111;28;826;-69
2022/05/25 00:48:13;;;;;;;;;;;;;;;;;;350077;28;1003;-70
2022/05/25 00:48:26;;;;;;;;;;;;;;;;;;350143;28;845;-70
2022/05/25 00:48:37;;;;;;;;;;;;;;;;;;350047;28;789;-70
2022/05/25 00:48:50;;;;;;;;;;;;;;;;;;350089;28;924;-70
2022/05/25 00:49:01;;;;;;;;;;;;;;;;;;350087;28;1012;-70
2022/05/25 00:49:17;;;;;;;;;;;;;;;;;;350064;28;1154;-70
2022/05/25 00:49:29;;;;;;;;;;;;;;;;;;350056;28;920;-70
2022/05/25 00:49:39;;;;;;;;;;;;;;;;;;350107;28;992;-70
2022/05/25 00:49:49;;;;;;;;;;;;;;;;;;350104;28;917;-70
2022/05/25 00:50:00;;;;;;;;;;;;;;;;;;350044;28;1114;-70
2022/05/25 00:50:13;;;;;;;;;;;;;;;;;;350052;28;806;-70
2022/05/25 00:50:24;;;;;;;;;;;;;;;;;;350110;28;794;-70
2022/05/25 00:51:21;;;;;;;;;;;;;;;;;;349983;28;996;-70
2022/05/25 00:51:49;;;;;;;;;;;;;;;;;;350083;28;936;-70
2022/05/25 00:52:10;;;;;;;;;;;;;;;;;;350049;28;916;-70
2022/05/25 00:52:21;;;;;;;;;;;;;;;;;;350159;28;979;-70
2022/05/25 00:52:31;;;;;;;;;;;;;;;;;;350100;28;933;-70
2022/05/25 00:52:43;;;;;;;;;;;;;;;;;;350021;28;817;-70
2022/05/25 00:52:53;;;;;;;;;;;;;;;;;;350059;28;949;-70
2022/05/25 00:53:03;;;;;;;;;;;;;;;;;;350068;28;1071;-70
2022/05/25 00:53:13;;;;;;;;;;;;;;;;;;350121;28;972;-70
2022/05/25 00:53:24;;;;;;;;;;;;;;;;;;350049;28;937;-71
2022/05/25 00:53:35;;;;;;;;;;;;;;;;;;350101;28;936;-70
2022/05/25 00:53:47;;;;;;;;;;;;;;;;;;350095;28;928;-70
2022/05/25 00:54:00;;;;;;;;;;;;;;;;;;350129;28;916;-70
2022/05/25 00:54:14;;;;;;;;;;;;;;;;;;350054;28;917;-70
2022/05/25 00:54:30;;;;;;;;;;;;;;;;;;350058;28;912;-70
2022/05/25 00:54:42;;;;;;;;;;;;;;;;;;350074;28;909;-70
2022/05/25 00:54:55;;;;;;;;;;;;;;;;;;349998;28;1016;-70
2022/05/25 00:55:06;;;;;;;;;;;;;;;;;;350062;28;1003;-70
2022/05/25 00:55:26;;;;;;;;;;;;;;;;;;350125;28;814;-70
2022/05/25 00:55:37;;;;;;;;;;;;;;;;;;350078;28;782;-70
2022/05/25 00:55:48;;;;;;;;;;;;;;;;;;350128;28;873;-72
2022/05/25 00:55:58;;;;;;;;;;;;;;;;;;350089;28;952;-70
2022/05/25 00:56:09;;;;;;;;;;;;;;;;;;350052;28;991;-70
2022/05/25 00:56:21;;;;;;;;;;;;;;;;;;350016;28;1910;-70
2022/05/25 00:56:32;;;;;;;;;;;;;;;;;;350095;28;912;-70
2022/05/25 00:56:45;;;;;;;;;;;;;;;;;;350056;28;837;-70
2022/05/25 00:56:58;;;;;;;;;;;;;;;;;;349988;28;1207;-70
2022/05/25 00:57:27;;;;;;;;;;;;;;;;;;350082;28;916;-70
2022/05/25 00:57:42;;;;;;;;;;;;;;;;;;350009;28;874;-70
2022/05/25 00:57:55;;;;;;;;;;;;;;;;;;350081;28;968;-72
2022/05/25 00:58:05;;;;;;;;;;;;;;;;;;350130;28;916;-71
2022/05/25 00:58:16;;;;;;;;;;;;;;;;;;350073;28;916;-71
2022/05/25 00:58:26;;;;;;;;;;;;;;;;;;350134;28;845;-70
2022/05/25 00:58:37;;;;;;;;;;;;;;;;;;350089;28;948;-70
2022/05/25 00:58:52;;;;;;;;;;;;;;;;;;349836;28;1043;-70
2022/05/25 00:59:06;;;;;;;;;;;;;;;;;;350022;28;984;-70
2022/05/25 00:59:18;;;;;;;;;;;;;;;;;;350147;28;861;-71
2022/05/25 00:59:34;;;;;;;;;;;;;;;;;;350086;28;924;-70
2022/05/25 00:59:48;;;;;;;;;;;;;;;;;;350052;28;960;-70
2022/05/25 01:00:18;;;;;;;;;;;;;;;;;;350096;28;908;-70
2022/05/25 01:00:29;;;;;;;;;;;;;;;;;;350113;28;929;-70
2022/05/25 01:00:39;;;;;;;;;;;;;;;;;;350140;28;826;-70
2022/05/25 01:00:50;;;;;;;;;;;;;;;;;;350044;28;924;-70
2022/05/25 01:01:00;;;;;;;;;;;;;;;;;;350064;28;865;-70
2022/05/25 01:01:11;;;;;;;;;;;;;;;;;;350014;28;976;-70
2022/05/25 01:01:21;;;;;;;;;;;;;;;;;;350111;28;846;-71
2022/05/25 01:01:31;;;;;;;;;;;;;;;;;;350075;28;920;-70
2022/05/25 01:01:41;;;;;;;;;;;;;;;;;;350052;28;964;-70
2022/05/25 01:01:52;;;;;;;;;;;;;;;;;;350112;28;841;-70
2022/05/25 01:02:02;;;;;;;;;;;;;;;;;;350046;28;949;-70
2022/05/25 01:02:13;;;;;;;;;;;;;;;;;;350046;28;869;-70
2022/05/25 01:02:25;;;;;;;;;;;;;;;;;;350113;28;862;-71
2022/05/25 01:02:37;;;;;;;;;;;;;;;;;;350016;28;1124;-70
2022/05/25 01:02:50;;;;;;;;;;;;;;;;;;350028;28;907;-70
2022/05/25 01:03:08;;;;;;;;;;;;;;;;;;350060;28;865;-70
2022/05/25 01:03:19;;;;;;;;;;;;;;;;;;350060;28;802;-70
2022/05/25 01:03:29;;;;;;;;;;;;;;;;;;350083;28;936;-70
2022/05/25 01:03:40;;;;;;;;;;;;;;;;;;350087;28;937;-70
2022/05/25 01:03:50;;;;;;;;;;;;;;;;;;350087;28;841;-70
2022/05/25 01:04:00;;;;;;;;;;;;;;;;;;350041;28;936;-70
2022/05/25 01:04:11;;;;;;;;;;;;;;;;;;350069;28;932;-70
2022/05/25 01:04:22;;;;;;;;;;;;;;;;;;350088;28;995;-71
2022/05/25 01:04:32;;;;;;;;;;;;;;;;;;350024;28;913;-70
2022/05/25 01:04:42;;;;;;;;;;;;;;;;;;350093;28;826;-70
2022/05/25 01:04:52;;;;;;;;;;;;;;;;;;350051;28;905;-70
2022/05/25 01:05:03;;;;;;;;;;;;;;;;;;349878;28;1194;-70
2022/05/25 01:05:15;;;;;;;;;;;;;;;;;;349947;28;1076;-70
2022/05/25 01:05:31;;;;;;;;;;;;;;;;;;350033;28;1282;-70
2022/05/25 01:05:51;;;;;;;;;;;;;;;;;;350010;28;924;-70
2022/05/25 01:06:11;;;;;;;;;;;;;;;;;;350040;28;1016;-70
2022/05/25 01:06:34;;;;;;;;;;;;;;;;;;350089;28;974;-70
2022/05/25 01:07:17;;;;;;;;;;;;;;;;;;350090;28;901;-70
2022/05/25 01:07:39;;;;;;;;;;;;;;;;;;346039;28;1455;-70
2022/05/25 01:08:09;;;;;;;;;;;;;;;;;;347127;28;1052;-70
2022/05/25 01:08:34;;;;;;;;;;;;;;;;;;347129;28;844;-70
2022/05/25 01:09:02;;;;;;;;;;;;;;;;;;349069;28;1145;-70
2022/05/25 01:09:24;;;;;;;;;;;;;;;;;;350074;28;916;-70
2022/05/25 01:09:40;;;;;;;;;;;;;;;;;;350111;28;877;-70
2022/05/25 01:10:09;;;;;;;;;;;;;;;;;;349919;28;1126;-70
2022/05/25 01:10:37;;;;;;;;;;;;;;;;;;349975;28;981;-70
2022/05/25 01:10:50;;;;;;;;;;;;;;;;;;350032;28;813;-70
2022/05/25 01:11:19;;;;;;;;;;;;;;;;;;349995;28;961;-70
2022/05/25 01:11:47;;;;;;;;;;;;;;;;;;350012;28;960;-70
2022/05/25 01:12:05;;;;;;;;;;;;;;;;;;349946;28;953;-70
2022/05/25 01:12:18;;;;;;;;;;;;;;;;;;350072;28;862;-70
2022/05/25 01:12:34;;;;;;;;;;;;;;;;;;350015;28;968;-70
2022/05/25 01:12:54;;;;;;;;;;;;;;;;;;350042;28;937;-70
2022/05/25 01:13:07;;;;;;;;;;;;;;;;;;349965;28;996;-70
2022/05/25 01:13:24;;;;;;;;;;;;;;;;;;350073;28;849;-70
2022/05/25 01:13:44;;;;;;;;;;;;;;;;;;349979;28;937;-70
2022/05/25 01:13:55;;;;;;;;;;;;;;;;;;350044;28;897;-70
2022/05/25 01:14:11;;;;;;;;;;;;;;;;;;350027;28;929;-70
2022/05/25 01:14:42;;;;;;;;;;;;;;;;;;350083;28;976;-70
2022/05/25 01:14:53;;;;;;;;;;;;;;;;;;350089;28;774;-70
2022/05/25 01:15:09;;;;;;;;;;;;;;;;;;350034;28;905;-70
2022/05/25 01:15:28;;;;;;;;;;;;;;;;;;350014;28;1003;-70
2022/05/25 01:15:52;;;;;;;;;;;;;;;;;;350027;28;810;-70
2022/05/25 01:16:02;;;;;;;;;;;;;;;;;;350033;28;941;-70
2022/05/25 01:16:25;;;;;;;;;;;;;;;;;;350052;28;995;-70
2022/05/25 01:17:00;;;;;;;;;;;;;;;;;;349957;28;1011;-70
2022/05/25 01:17:11;;;;;;;;;;;;;;;;;;345618;28;1246;-71
2022/05/25 01:17:21;;;;;;;;;;;;;;;;;;345717;28;1143;-71
2022/05/25 01:18:09;;;;;;;;;;;;;;;;;;345764;28;983;-70
2022/05/25 01:18:31;;;;;;;;;;;;;;;;;;347094;28;917;-70
2022/05/25 01:18:52;;;;;;;;;;;;;;;;;;347058;28;1092;-70
2022/05/25 01:19:12;;;;;;;;;;;;;;;;;;347106;28;929;-70
2022/05/25 01:19:40;;;;;;;;;;;;;;;;;;347127;28;1052;-70
2022/05/25 01:20:09;;;;;;;;;;;;;;;;;;347053;28;799;-70
2022/05/25 01:20:28;;;;;;;;;;;;;;;;;;347124;28;918;-70
2022/05/25 01:20:46;;;;;;;;;;;;;;;;;;347197;28;772;-70
2022/05/25 01:21:02;;;;;;;;;;;;;;;;;;347137;28;779;-70
2022/05/25 01:21:13;;;;;;;;;;;;;;;;;;346957;28;870;-70
2022/05/25 01:21:23;;;;;;;;;;;;;;;;;;347144;28;865;-70
2022/05/25 01:21:43;;;;;;;;;;;;;;;;;;347138;28;946;-71
2022/05/25 01:21:59;;;;;;;;;;;;;;;;;;347039;28;845;-70
2022/05/25 01:22:27;;;;;;;;;;;;;;;;;;347126;28;802;-70
2022/05/25 01:22:41;;;;;;;;;;;;;;;;;;347063;28;992;-70
2022/05/25 01:23:00;;;;;;;;;;;;;;;;;;347170;28;874;-70
2022/05/25 01:23:16;;;;;;;;;;;;;;;;;;347118;28;913;-70
2022/05/25 01:23:43;;;;;;;;;;;;;;;;;;347114;28;949;-70
2022/05/25 01:23:56;;;;;;;;;;;;;;;;;;346300;28;1561;-70
2022/05/25 01:24:18;;;;;;;;;;;;;;;;;;345679;28;947;-70
2022/05/25 01:24:42;;;;;;;;;;;;;;;;;;348057;28;997;-70
2022/05/25 01:25:10;;;;;;;;;;;;;;;;;;348619;28;945;-70
2022/05/25 01:25:41;;;;;;;;;;;;;;;;;;348648;28;928;-70
2022/05/25 01:25:54;;;;;;;;;;;;;;;;;;348713;28;992;-70
2022/05/25 01:26:07;;;;;;;;;;;;;;;;;;348568;28;925;-70
2022/05/25 01:26:43;;;;;;;;;;;;;;;;;;348602;28;976;-70
2022/05/25 01:27:12;;;;;;;;;;;;;;;;;;345709;28;995;-70
2022/05/25 01:27:25;;;;;;;;;;;;;;;;;;345735;28;1052;-70
2022/05/25 01:27:41;;;;;;;;;;;;;;;;;;345735;28;921;-70
2022/05/25 01:27:52;;;;;;;;;;;;;;;;;;348710;28;908;-70
2022/05/25 01:28:16;;;;;;;;;;;;;;;;;;348611;28;901;-70
2022/05/25 01:28:42;;;;;;;;;;;;;;;;;;348649;28;999;-70
2022/05/25 01:29:04;;;;;;;;;;;;;;;;;;348637;28;1255;-70
2022/05/25 01:29:33;;;;;;;;;;;;;;;;;;348603;28;1125;-70
2022/05/25 01:29:49;;;;;;;;;;;;;;;;;;348632;28;1060;-70
2022/05/25 01:30:14;;;;;;;;;;;;;;;;;;348617;28;979;-71
2022/05/25 01:30:24;;;;;;;;;;;;;;;;;;348521;28;932;-70
2022/05/25 01:30:39;;;;;;;;;;;;;;;;;;348432;28;969;-70
2022/05/25 01:30:51;;;;;;;;;;;;;;;;;;348408;28;992;-70
2022/05/25 01:31:08;;;;;;;;;;;;;;;;;;348593;28;941;-70
2022/05/25 01:31:29;;;;;;;;;;;;;;;;;;348631;28;1007;-70
2022/05/25 01:31:42;;;;;;;;;;;;;;;;;;348700;28;838;-70
2022/05/25 01:31:57;;;;;;;;;;;;;;;;;;348637;28;821;-70
2022/05/25 01:32:13;;;;;;;;;;;;;;;;;;348617;28;904;-70
2022/05/25 01:32:26;;;;;;;;;;;;;;;;;;348617;28;1068;-70
2022/05/25 01:32:49;;;;;;;;;;;;;;;;;;348641;28;901;-70
2022/05/25 01:33:14;;;;;;;;;;;;;;;;;;348570;28;1063;-70
2022/05/25 01:33:46;;;;;;;;;;;;;;;;;;348669;28;906;-70
2022/05/25 01:34:01;;;;;;;;;;;;;;;;;;348602;28;1043;-70
2022/05/25 01:34:19;;;;;;;;;;;;;;;;;;348635;28;976;-70
2022/05/25 01:34:34;;;;;;;;;;;;;;;;;;348523;28;992;-70
2022/05/25 01:34:51;;;;;;;;;;;;;;;;;;348640;28;917;-70
2022/05/25 01:35:12;;;;;;;;;;;;;;;;;;348716;28;802;-70
2022/05/25 01:35:34;;;;;;;;;;;;;;;;;;348621;28;952;-70
2022/05/25 01:36:00;;;;;;;;;;;;;;;;;;348638;28;992;-70
2022/05/25 01:36:21;;;;;;;;;;;;;;;;;;348591;28;838;-70